Time;durP1;ratioP1;P1;durP2;ratioP2;P2;SDS_P1;SDS_P2;PMS_P1;PMS_P2;Temp;Humidity;BMP_temperature;BMP_pressure;BME280_temperature;BME280_humidity;BME280_pressure;Samples;Min_cycle;Max_cycle;Signal;HPM_P1;HPM_P2
2022/03/28 00:01:47;;;;;;;51.00;15.57;;;9.70;12.50;;;;;;4987130;28;20850;-69
2022/03/28 00:04:14;;;;;;;45.00;13.87;;;9.60;12.00;;;;;;4987225;28;20456;-68
2022/03/28 00:06:40;;;;;;;45.07;13.50;;;9.50;12.20;;;;;;4986629;28;20480;-69
2022/03/28 00:09:07;;;;;;;45.80;14.93;;;9.40;12.60;;;;;;4991296;28;20471;-69
2022/03/28 00:11:34;;;;;;;41.90;13.40;;;9.40;12.80;;;;;;4991555;28;20491;-69
2022/03/28 00:14:01;;;;;;;44.40;14.83;;;9.30;12.90;;;;;;4990791;28;20460;-68
2022/03/28 00:16:30;;;;;;;43.50;14.10;;;9.20;12.90;;;;;;4992103;28;20495;-68
2022/03/28 00:18:57;;;;;;;47.23;14.77;;;9.20;12.90;;;;;;4989574;28;21061;-68
2022/03/28 00:21:25;;;;;;;46.47;14.80;;;9.10;12.90;;;;;;4991915;28;20468;-68
2022/03/28 00:23:52;;;;;;;45.77;15.10;;;9.10;13.00;;;;;;4990823;28;20999;-69
2022/03/28 00:26:19;;;;;;;46.03;13.87;;;9.10;13.00;;;;;;4991169;28;20575;-68
2022/03/28 00:28:46;;;;;;;42.13;14.17;;;9.00;13.10;;;;;;4989057;28;20471;-68
2022/03/28 00:31:13;;;;;;;42.23;14.40;;;8.90;13.30;;;;;;4991057;28;20479;-68
2022/03/28 00:33:41;;;;;;;45.53;14.47;;;8.90;13.50;;;;;;4990779;28;20472;-68
2022/03/28 00:36:08;;;;;;;46.67;15.40;;;8.90;13.50;;;;;;4990854;28;20484;-69
2022/03/28 00:38:35;;;;;;;45.60;14.20;;;8.90;13.40;;;;;;4992042;28;20476;-69
2022/03/28 00:41:02;;;;;;;44.53;13.73;;;8.80;13.50;;;;;;4991167;28;20471;-70
2022/03/28 00:43:29;;;;;;;44.20;14.80;;;8.80;13.70;;;;;;4989279;28;20463;-70
2022/03/28 00:45:55;;;;;;;46.93;16.10;;;8.80;13.80;;;;;;4971671;28;21147;-68
2022/03/28 00:48:26;;;;;;;44.67;14.53;;;8.70;13.80;;;;;;4972869;28;20492;-70
2022/03/28 00:50:56;;;;;;;43.00;15.30;;;8.70;14.00;;;;;;4972677;28;20450;-70
2022/03/28 00:53:25;;;;;;;45.57;14.10;;;8.60;13.90;;;;;;4972324;28;20476;-70
2022/03/28 00:55:52;;;;;;;48.90;15.20;;;8.60;13.80;;;;;;4988263;28;20492;-68
2022/03/28 00:58:19;;;;;;;43.30;14.00;;;8.60;14.10;;;;;;4991677;28;20464;-69
2022/03/28 01:00:46;;;;;;;44.57;13.70;;;8.50;14.20;;;;;;4991504;28;20482;-68
2022/03/28 01:03:13;;;;;;;44.10;15.00;;;8.50;14.30;;;;;;4991011;28;20507;-68
2022/03/28 01:05:40;;;;;;;40.43;13.60;;;8.40;14.30;;;;;;4990360;28;20484;-68
2022/03/28 01:08:08;;;;;;;46.43;15.30;;;8.40;14.40;;;;;;4991301;28;20488;-71
2022/03/28 01:10:35;;;;;;;45.77;15.30;;;8.40;14.70;;;;;;4991795;28;20475;-68
2022/03/28 01:13:02;;;;;;;48.10;16.73;;;8.40;14.70;;;;;;4996133;28;20463;-70
2022/03/28 01:15:29;;;;;;;56.77;16.47;;;8.40;14.70;;;;;;5002825;28;20490;-69
2022/03/28 01:18:07;;;;;;;47.10;16.03;;;8.30;14.90;;;;;;4993318;28;20474;-68
2022/03/28 01:20:36;;;;;;;44.30;15.73;;;8.20;15.30;;;;;;4990289;28;20936;-68
2022/03/28 01:23:05;;;;;;;45.07;16.17;;;8.20;15.40;;;;;;4991133;28;20471;-67
2022/03/28 01:25:32;;;;;;;47.97;16.30;;;8.20;15.50;;;;;;4990317;28;20507;-67
2022/03/28 01:28:00;;;;;;;44.10;15.90;;;8.20;15.50;;;;;;4991419;28;20488;-68
2022/03/28 01:30:28;;;;;;;42.27;15.80;;;8.10;15.60;;;;;;4990667;28;20465;-69
2022/03/28 01:32:56;;;;;;;45.43;16.47;;;8.10;15.80;;;;;;4990676;28;20460;-70
2022/03/28 01:35:31;;;;;;;42.40;16.50;;;8.10;15.90;;;;;;4991037;28;20488;-68
2022/03/28 01:37:59;;;;;;;43.10;16.97;;;8.00;16.00;;;;;;4990679;28;20467;-68
2022/03/28 01:40:27;;;;;;;50.50;19.00;;;8.00;16.30;;;;;;4991109;28;20773;-68
2022/03/28 01:42:54;;;;;;;44.00;16.63;;;7.90;16.40;;;;;;4990881;28;20986;-68
2022/03/28 01:45:21;;;;;;;46.07;16.40;;;7.80;16.70;;;;;;4991173;28;20480;-68
2022/03/28 01:47:48;;;;;;;48.33;17.37;;;7.80;16.90;;;;;;4989869;28;20856;-68
2022/03/28 01:50:16;;;;;;;47.27;17.67;;;7.70;17.10;;;;;;4990780;28;20972;-68
2022/03/28 01:52:43;;;;;;;51.10;19.90;;;7.70;17.20;;;;;;4990436;28;20530;-68
2022/03/28 01:55:11;;;;;;;42.33;19.33;;;7.70;17.60;;;;;;4990548;28;20495;-69
2022/03/28 01:57:40;;;;;;;45.73;19.97;;;7.70;18.00;;;;;;4989604;28;20515;-68
2022/03/28 02:00:09;;;;;;;48.43;19.17;;;7.60;18.00;;;;;;4988717;28;20475;-68
2022/03/28 02:02:36;;;;;;;43.43;18.93;;;7.60;18.10;;;;;;4989596;28;20835;-67
2022/03/28 02:05:03;;;;;;;45.37;19.03;;;7.50;18.30;;;;;;4989073;28;20901;-67
2022/03/28 02:07:30;;;;;;;44.17;19.10;;;7.50;18.40;;;;;;4990186;28;20519;-70
2022/03/28 02:09:57;;;;;;;43.93;17.80;;;7.40;18.20;;;;;;4989544;28;20472;-69
2022/03/28 02:12:24;;;;;;;44.50;17.07;;;7.30;18.40;;;;;;4990624;28;20541;-69
2022/03/28 02:14:52;;;;;;;43.93;18.20;;;7.20;18.40;;;;;;4989301;28;20490;-70
2022/03/28 02:17:19;;;;;;;40.30;17.83;;;7.20;18.50;;;;;;4990325;28;20736;-70
2022/03/28 02:19:46;;;;;;;42.37;18.47;;;7.10;19.00;;;;;;4989685;28;20822;-69
2022/03/28 02:22:13;;;;;;;45.20;19.27;;;7.10;19.30;;;;;;4990901;28;20523;-69
2022/03/28 02:24:39;;;;;;;47.30;20.80;;;7.10;19.70;;;;;;4990181;28;20491;-69
2022/03/28 02:27:07;;;;;;;40.00;18.20;;;7.00;19.70;;;;;;4990010;28;20477;-69
2022/03/28 02:29:34;;;;;;;44.20;18.40;;;7.00;20.30;;;;;;4988880;28;20471;-67
2022/03/28 02:32:03;;;;;;;39.00;17.80;;;7.00;20.60;;;;;;4988533;28;20488;-70
2022/03/28 02:34:30;;;;;;;41.70;18.50;;;7.00;20.40;;;;;;4989973;28;20457;-69
2022/03/28 02:36:57;;;;;;;42.80;18.00;;;7.10;20.60;;;;;;4988934;28;20460;-69
2022/03/28 02:39:23;;;;;;;41.13;18.20;;;7.10;20.80;;;;;;4990096;28;20483;-70
2022/03/28 02:41:50;;;;;;;42.27;18.57;;;7.10;20.60;;;;;;4989238;28;20475;-69
2022/03/28 02:44:18;;;;;;;40.80;18.53;;;7.10;20.40;;;;;;4989662;28;20728;-70
2022/03/28 02:46:45;;;;;;;41.70;18.87;;;7.10;20.40;;;;;;4990211;28;20520;-71
2022/03/28 02:49:14;;;;;;;43.73;19.07;;;7.10;20.20;;;;;;4989715;28;20477;-69
2022/03/28 02:51:41;;;;;;;42.00;17.67;;;7.10;20.00;;;;;;4990215;28;20952;-69
2022/03/28 02:54:07;;;;;;;47.37;19.10;;;7.10;19.90;;;;;;4988253;28;20478;-70
2022/03/28 02:57:30;;;;;;;45.17;19.57;;;7.10;20.00;;;;;;4989713;28;20845;-69
2022/03/28 02:59:56;;;;;;;43.97;17.70;;;7.10;20.00;;;;;;4987795;28;20460;-69
2022/03/28 03:02:23;;;;;;;44.83;18.83;;;7.00;19.90;;;;;;4988737;28;20480;-70
2022/03/28 03:04:51;;;;;;;48.93;19.50;;;7.00;20.00;;;;;;4989314;28;20757;-70
2022/03/28 03:07:19;;;;;;;40.30;17.37;;;6.90;20.00;;;;;;4989836;28;20477;-70
2022/03/28 03:09:48;;;;;;;42.10;18.40;;;6.90;20.30;;;;;;4989746;28;20547;-69
2022/03/28 03:12:14;;;;;;;44.57;18.83;;;6.80;20.10;;;;;;4988972;28;20826;-70
2022/03/28 03:14:41;;;;;;;43.23;19.40;;;6.80;20.20;;;;;;4987975;28;20569;-69
2022/03/28 03:17:08;;;;;;;41.97;19.20;;;6.80;20.50;;;;;;4989527;28;21026;-70
2022/03/28 03:19:35;;;;;;;44.07;19.83;;;6.70;21.10;;;;;;4989311;28;20560;-70
2022/03/28 03:22:04;;;;;;;44.63;18.80;;;6.60;20.70;;;;;;4989234;28;20999;-70
2022/03/28 03:24:31;;;;;;;42.43;18.33;;;6.50;21.10;;;;;;4987969;28;20464;-69
2022/03/28 03:26:58;;;;;;;41.43;19.10;;;6.50;21.20;;;;;;4988570;28;20468;-69
2022/03/28 03:29:25;;;;;;;41.90;18.67;;;6.50;21.50;;;;;;5000690;28;20453;-68
2022/03/28 03:31:52;;;;;;;47.80;18.87;;;6.40;21.30;;;;;;4998374;28;20480;-67
2022/03/28 03:34:19;;;;;;;47.00;18.83;;;6.40;21.60;;;;;;4988736;28;20559;-67
2022/03/28 03:36:46;;;;;;;44.23;19.37;;;6.30;21.70;;;;;;4988773;28;20479;-67
2022/03/28 03:39:14;;;;;;;46.90;19.00;;;6.30;21.90;;;;;;4988934;28;20457;-68
2022/03/28 03:41:41;;;;;;;42.20;19.30;;;6.30;22.00;;;;;;4989184;28;20470;-68
2022/03/28 03:44:08;;;;;;;50.80;20.50;;;6.20;21.70;;;;;;4988959;28;20497;-67
2022/03/28 03:46:34;;;;;;;45.20;18.50;;;6.20;21.80;;;;;;4969516;28;20470;-69
2022/03/28 03:49:01;;;;;;;45.70;18.17;;;6.10;21.80;;;;;;4969522;28;20490;-69
2022/03/28 03:51:28;;;;;;;43.17;20.37;;;6.10;22.00;;;;;;4968966;28;20466;-67
2022/03/28 03:53:55;;;;;;;42.20;17.57;;;6.10;22.20;;;;;;4968827;28;20472;-69
2022/03/28 03:56:23;;;;;;;42.43;18.40;;;6.10;22.40;;;;;;4983772;28;20503;-69
2022/03/28 03:58:50;;;;;;;43.17;18.53;;;6.10;22.50;;;;;;4989409;28;20513;-67
2022/03/28 04:01:17;;;;;;;47.20;18.67;;;6.10;22.70;;;;;;4988006;28;20705;-70
2022/03/28 04:03:44;;;;;;;42.47;19.00;;;6.00;22.50;;;;;;4987166;28;20982;-69
2022/03/28 04:06:11;;;;;;;44.17;18.60;;;6.00;22.70;;;;;;4979886;28;20484;-67
2022/03/28 04:08:38;;;;;;;44.23;19.83;;;6.00;23.00;;;;;;4988903;28;20543;-70
2022/03/28 04:11:05;;;;;;;41.73;18.00;;;6.00;23.40;;;;;;4988698;28;20507;-69
2022/03/28 04:13:33;;;;;;;38.97;17.67;;;6.00;22.80;;;;;;4988287;28;20464;-68
2022/03/28 04:16:00;;;;;;;43.07;18.97;;;5.90;23.10;;;;;;4979987;28;20481;-69
2022/03/28 04:18:28;;;;;;;44.73;18.90;;;5.90;22.90;;;;;;4985793;28;21245;-68
2022/03/28 04:20:55;;;;;;;45.73;19.57;;;5.90;22.90;;;;;;4984655;28;20948;-68
2022/03/28 04:23:22;;;;;;;43.47;19.03;;;5.90;22.80;;;;;;4984091;28;21011;-68
2022/03/28 04:25:49;;;;;;;48.53;19.23;;;5.90;23.00;;;;;;4981889;28;20587;-68
2022/03/28 04:28:16;;;;;;;42.80;17.70;;;5.90;22.80;;;;;;4981300;28;20544;-68
2022/03/28 04:30:44;;;;;;;41.60;17.77;;;5.90;22.80;;;;;;4970824;28;21189;-67
2022/03/28 04:33:11;;;;;;;47.63;19.40;;;5.90;23.00;;;;;;4987995;28;20600;-68
2022/03/28 04:35:39;;;;;;;46.43;19.87;;;5.90;22.90;;;;;;4988546;28;20595;-68
2022/03/28 04:38:07;;;;;;;46.27;19.50;;;5.80;22.90;;;;;;4986995;28;20467;-68
2022/03/28 04:40:35;;;;;;;45.57;19.00;;;5.80;22.90;;;;;;4977151;28;20465;-68
2022/03/28 04:43:02;;;;;;;47.60;21.07;;;5.80;23.00;;;;;;4980082;28;20546;-68
2022/03/28 04:45:30;;;;;;;49.53;19.97;;;5.80;23.20;;;;;;4996064;28;20817;-67
2022/03/28 04:47:58;;;;;;;44.87;18.57;;;5.70;23.10;;;;;;4987511;28;20504;-68
2022/03/28 04:50:25;;;;;;;45.40;19.13;;;5.70;23.60;;;;;;4988876;28;20471;-68
2022/03/28 04:52:52;;;;;;;49.03;20.43;;;5.70;23.50;;;;;;4990266;28;20475;-68
2022/03/28 04:55:19;;;;;;;49.53;21.10;;;5.70;23.70;;;;;;4996086;28;21011;-68
2022/03/28 04:57:46;;;;;;;49.30;19.37;;;5.70;23.70;;;;;;4993731;28;20452;-68
2022/03/28 05:00:14;;;;;;;46.37;19.87;;;5.70;23.70;;;;;;4991037;28;20959;-66
2022/03/28 05:02:41;;;;;;;52.27;19.90;;;5.60;23.70;;;;;;4993756;28;20472;-67
2022/03/28 05:05:10;;;;;;;49.90;20.57;;;5.60;23.80;;;;;;4993875;28;20483;-68
2022/03/28 05:07:38;;;;;;;46.83;18.70;;;5.60;24.00;;;;;;4993322;28;20460;-66
2022/03/28 05:10:06;;;;;;;45.70;20.40;;;5.60;24.00;;;;;;4991990;28;20551;-67
2022/03/28 05:12:34;;;;;;;49.07;19.70;;;5.60;24.20;;;;;;4992750;28;20461;-68
2022/03/28 05:15:02;;;;;;;44.37;18.57;;;5.60;24.20;;;;;;4993474;28;20487;-70
2022/03/28 05:17:30;;;;;;;46.90;20.03;;;5.50;24.20;;;;;;4993086;28;20468;-67
2022/03/28 05:19:59;;;;;;;51.33;19.50;;;5.50;24.60;;;;;;4991715;28;20469;-68
2022/03/28 05:22:27;;;;;;;44.13;17.47;;;5.50;24.50;;;;;;4991756;28;20457;-67
2022/03/28 05:24:55;;;;;;;47.90;18.60;;;5.50;24.80;;;;;;4993347;28;20476;-67
2022/03/28 05:27:22;;;;;;;51.43;20.17;;;5.60;25.60;;;;;;4992719;28;20464;-67
2022/03/28 05:29:49;;;;;;;45.73;18.90;;;5.60;25.60;;;;;;4992932;28;20495;-68
2022/03/28 05:32:16;;;;;;;48.77;17.83;;;5.70;24.90;;;;;;4991306;28;20502;-69
2022/03/28 05:34:43;;;;;;;50.93;17.97;;;5.80;24.60;;;;;;4993293;28;20487;-69
2022/03/28 05:37:13;;;;;;;49.47;19.93;;;6.00;24.40;;;;;;4992438;28;20974;-67
2022/03/28 05:39:42;;;;;;;50.20;18.00;;;6.20;24.00;;;;;;4992930;28;20460;-67
2022/03/28 05:42:09;;;;;;;54.83;20.67;;;6.50;23.40;;;;;;4991563;28;20461;-67
2022/03/28 05:44:36;;;;;;;48.57;16.50;;;6.90;22.30;;;;;;4998997;28;20448;-70
2022/03/28 05:47:03;;;;;;;51.63;17.37;;;7.40;21.30;;;;;;5003740;28;20471;-68
2022/03/28 05:49:30;;;;;;;51.00;17.30;;;7.90;20.20;;;;;;4992597;28;20535;-67
2022/03/28 05:51:57;;;;;;;51.30;17.60;;;8.40;19.40;;;;;;4988460;28;20466;-68
2022/03/28 05:54:24;;;;;;;58.80;22.47;;;8.70;18.70;;;;;;4988634;28;20460;-68
2022/03/28 05:56:52;;;;;;;54.87;19.77;;;9.10;18.20;;;;;;4988943;28;20456;-68
2022/03/28 05:59:19;;;;;;;53.73;19.00;;;9.40;18.00;;;;;;4989576;28;20475;-67
2022/03/28 06:01:46;;;;;;;50.97;18.37;;;9.60;17.20;;;;;;4987474;28;20475;-68
2022/03/28 06:04:13;;;;;;;55.47;18.73;;;9.80;17.10;;;;;;4988771;28;20838;-67
2022/03/28 06:06:40;;;;;;;55.40;18.47;;;10.00;16.90;;;;;;4988570;28;20487;-67
2022/03/28 06:09:07;;;;;;;52.97;18.73;;;10.20;16.50;;;;;;4988990;28;21015;-67
2022/03/28 06:11:34;;;;;;;51.20;17.43;;;10.40;16.80;;;;;;4989846;28;20460;-67
2022/03/28 06:14:02;;;;;;;54.80;16.13;;;10.60;16.60;;;;;;4988106;28;21028;-67
2022/03/28 06:16:29;;;;;;;52.10;17.30;;;10.80;16.60;;;;;;4989000;28;21048;-67
2022/03/28 06:18:56;;;;;;;49.27;17.37;;;11.00;16.40;;;;;;4989336;28;20456;-67
2022/03/28 06:21:23;;;;;;;48.73;16.87;;;11.20;16.00;;;;;;4988363;28;20464;-67
2022/03/28 06:23:49;;;;;;;48.87;17.53;;;11.60;15.30;;;;;;4987383;28;20972;-69
2022/03/28 06:26:17;;;;;;;52.33;17.87;;;12.10;14.00;;;;;;4989002;28;20495;-67
2022/03/28 06:28:44;;;;;;;53.23;17.10;;;12.70;12.80;;;;;;4989261;28;20493;-68
2022/03/28 06:34:34;;;;;;;48.93;17.57;;;13.50;11.00;;;;;;4986935;28;20762;-67
2022/03/28 06:37:01;;;;;;;50.97;19.10;;;14.00;10.00;;;;;;4988421;28;20461;-68
2022/03/28 06:39:28;;;;;;;49.43;18.43;;;14.60;9.20;;;;;;4989374;28;20460;-67
2022/03/28 06:41:54;;;;;;;52.07;18.90;;;15.50;8.00;;;;;;4988776;28;20955;-68
2022/03/28 06:44:31;;;;;;;48.37;19.00;;;16.50;6.60;;;;;;4986957;28;20614;-70
2022/03/28 06:46:58;;;;;;;48.03;18.00;;;17.80;5.10;;;;;;4988709;28;20628;-68
2022/03/28 06:49:25;;;;;;;48.47;17.87;;;19.00;3.60;;;;;;4988378;28;20484;-70
2022/03/28 06:51:53;;;;;;;45.50;16.70;;;20.20;1.70;;;;;;4988717;28;20461;-68
2022/03/28 06:54:20;;;;;;;45.37;17.47;;;21.40;1.00;;;;;;4987008;28;20833;-68
2022/03/28 06:56:47;;;;;;;46.50;17.87;;;22.50;1.00;;;;;;4988409;28;20464;-69
2022/03/28 06:59:14;;;;;;;45.33;17.53;;;23.60;1.00;;;;;;4988392;28;20456;-68
2022/03/28 07:01:41;;;;;;;47.70;17.47;;;24.50;1.00;;;;;;4987225;28;20500;-69
2022/03/28 07:04:10;;;;;;;44.13;17.50;;;25.50;1.00;;;;;;4986605;28;20507;-69
2022/03/28 07:06:37;;;;;;;45.13;17.27;;;26.40;1.00;;;;;;4988060;28;20488;-69
2022/03/28 07:09:05;;;;;;;43.63;17.00;;;27.30;1.00;;;;;;4987875;28;21181;-69
2022/03/28 07:11:32;;;;;;;41.63;16.37;;;28.20;1.00;;;;;;4987389;28;20539;-69
2022/03/28 07:13:59;;;;;;;50.73;18.27;;;29.00;1.00;;;;;;4988262;28;20472;-69
2022/03/28 07:16:26;;;;;;;42.03;15.93;;;29.80;1.00;;;;;;4985850;28;20489;-69
2022/03/28 07:18:53;;;;;;;40.67;17.07;;;30.50;1.00;;;;;;4987466;28;20834;-69
2022/03/28 07:21:19;;;;;;;43.30;16.90;;;31.30;1.00;;;;;;4987911;28;20956;-69
2022/03/28 07:23:48;;;;;;;39.50;17.07;;;32.00;1.00;;;;;;4988287;28;20461;-69
2022/03/28 07:26:16;;;;;;;44.50;16.40;;;32.60;1.00;;;;;;4987031;28;20511;-69
2022/03/28 07:28:43;;;;;;;39.17;16.53;;;33.30;1.00;;;;;;4987055;28;20854;-70
2022/03/28 07:31:10;;;;;;;42.77;16.97;;;33.90;1.00;;;;;;4987267;28;20477;-69
2022/03/28 07:33:38;;;;;;;44.07;17.10;;;34.40;1.00;;;;;;4987719;28;20460;-70
2022/03/28 07:36:06;;;;;;;36.70;15.67;;;34.90;1.00;;;;;;4986388;28;20480;-69
2022/03/28 07:38:33;;;;;;;43.10;17.17;;;35.40;1.00;;;;;;4987578;28;20464;-70
2022/03/28 07:41:00;;;;;;;38.67;15.67;;;35.90;1.00;;;;;;4988414;28;20583;-70
2022/03/28 07:43:28;;;;;;;38.10;15.80;;;36.40;1.00;;;;;;4988121;28;20635;-70
2022/03/28 07:45:56;;;;;;;37.17;16.60;;;37.00;1.00;;;;;;4986445;28;21156;-70
2022/03/28 07:48:23;;;;;;;39.03;15.93;;;37.40;1.00;;;;;;4968782;28;20461;-70
2022/03/28 07:50:51;;;;;;;37.20;16.00;;;37.90;1.00;;;;;;4968899;28;20462;-70
2022/03/28 07:53:18;;;;;;;40.17;15.87;;;38.30;1.00;;;;;;4968019;28;20878;-70
2022/03/28 07:55:45;;;;;;;34.67;16.47;;;38.60;1.00;;;;;;4967984;28;20477;-70
2022/03/28 07:58:12;;;;;;;37.67;16.67;;;39.00;1.00;;;;;;4984375;28;20475;-70
2022/03/28 08:00:40;;;;;;;36.20;16.50;;;39.30;1.00;;;;;;4994957;28;20469;-70
2022/03/28 08:03:08;;;;;;;36.10;16.30;;;39.90;1.00;;;;;;4989278;28;20456;-70
2022/03/28 08:05:34;;;;;;;36.33;16.43;;;40.20;1.00;;;;;;4987164;28;20477;-70
2022/03/28 08:08:01;;;;;;;38.10;16.90;;;40.40;1.00;;;;;;4986040;28;20468;-70
2022/03/28 08:10:28;;;;;;;37.83;16.10;;;40.70;1.00;;;;;;4987888;28;20851;-70
2022/03/28 08:12:55;;;;;;;36.90;16.80;;;40.90;1.00;;;;;;4987700;28;20819;-70
2022/03/28 08:15:22;;;;;;;35.97;17.37;;;41.20;1.00;;;;;;4987496;28;20487;-70
2022/03/28 08:17:51;;;;;;;36.07;16.10;;;41.60;1.00;;;;;;4986264;28;20563;-70
2022/03/28 08:20:18;;;;;;;38.50;17.43;;;41.90;1.00;;;;;;4987152;28;20461;-70
2022/03/28 08:22:49;;;;;;;37.30;17.20;;;42.20;1.00;;;;;;4987095;28;20456;-70
2022/03/28 08:25:16;;;;;;;37.23;16.33;;;42.50;1.00;;;;;;4987698;28;20531;-70
2022/03/28 08:27:43;;;;;;;33.10;16.40;;;42.80;1.00;;;;;;4986965;28;20463;-70
2022/03/28 08:30:12;;;;;;;33.83;16.20;;;43.00;1.00;;;;;;4991169;28;20491;-70
2022/03/28 08:32:40;;;;;;;35.17;17.17;;;43.10;1.00;;;;;;4990338;28;20460;-70
2022/03/28 08:35:09;;;;;;;35.80;17.37;;;43.20;1.00;;;;;;4991128;28;20551;-70
2022/03/28 08:37:36;;;;;;;36.47;18.27;;;43.40;1.00;;;;;;4990393;28;20833;-70
2022/03/28 08:40:04;;;;;;;38.53;17.73;;;43.60;1.00;;;;;;4989883;28;20491;-70
2022/03/28 08:42:32;;;;;;;35.73;17.37;;;43.70;1.00;;;;;;4990393;28;20468;-70
2022/03/28 08:45:00;;;;;;;35.80;18.10;;;43.90;1.00;;;;;;4991287;28;20563;-70
2022/03/28 08:47:27;;;;;;;37.90;17.83;;;44.10;1.00;;;;;;4989773;28;20468;-70
2022/03/28 08:49:55;;;;;;;35.80;18.93;;;44.20;1.00;;;;;;4991082;28;20484;-70
2022/03/28 08:52:24;;;;;;;34.77;18.37;;;44.30;1.00;;;;;;4990144;28;20464;-70
2022/03/28 08:54:51;;;;;;;38.57;18.70;;;44.50;1.00;;;;;;4990017;28;20797;-70
2022/03/28 08:57:18;;;;;;;36.90;19.30;;;44.60;1.00;;;;;;4989844;28;20914;-70
2022/03/28 08:59:45;;;;;;;35.20;18.73;;;44.90;1.00;;;;;;4989238;28;20464;-70
2022/03/28 09:02:32;;;;;;;35.60;20.00;;;45.00;1.00;;;;;;4989433;28;20503;-70
2022/03/28 09:04:59;;;;;;;41.00;19.33;;;45.00;1.00;;;;;;4990325;28;20483;-70
2022/03/28 09:07:28;;;;;;;40.67;19.43;;;45.00;1.00;;;;;;4989586;28;20464;-70
2022/03/28 09:09:59;;;;;;;37.30;18.63;;;44.10;1.00;;;;;;4990277;28;20491;-70
2022/03/28 09:12:26;;;;;;;41.77;19.80;;;43.90;1.00;;;;;;4990272;28;20519;-70
2022/03/28 09:14:58;;;;;;;37.50;18.67;;;44.30;1.00;;;;;;4989722;28;20559;-70
2022/03/28 09:17:26;;;;;;;41.30;20.07;;;44.80;1.00;;;;;;4989220;28;20464;-69
2022/03/28 09:19:55;;;;;;;38.67;19.57;;;45.30;1.00;;;;;;4990550;28;20484;-70
2022/03/28 09:22:24;;;;;;;39.60;19.63;;;45.60;1.00;;;;;;4989428;28;20464;-70
2022/03/28 09:24:53;;;;;;;36.53;18.00;;;46.00;1.00;;;;;;4990923;28;20917;-70
2022/03/28 09:27:22;;;;;;;38.67;20.13;;;46.20;1.00;;;;;;4989830;28;20461;-70
2022/03/28 09:30:05;;;;;;;35.10;18.80;;;46.60;1.00;;;;;;4988373;28;20484;-70
2022/03/28 09:32:35;;;;;;;38.40;18.90;;;46.70;1.00;;;;;;4989537;28;20812;-70
2022/03/28 09:35:07;;;;;;;38.70;19.77;;;46.90;1.00;;;;;;4989660;28;21298;-70
2022/03/28 09:37:48;;;;;;;37.47;20.90;;;47.00;1.00;;;;;;4989510;28;20461;-71
2022/03/28 09:40:24;;;;;;;37.30;20.50;;;47.20;1.00;;;;;;4987872;28;20775;-70
2022/03/28 09:42:51;;;;;;;38.03;19.80;;;47.40;1.00;;;;;;4989354;28;20460;-70
2022/03/28 09:45:23;;;;;;;37.13;19.60;;;47.50;1.00;;;;;;4989761;28;20488;-70
2022/03/28 09:47:56;;;;;;;36.57;20.67;;;47.70;1.00;;;;;;4989520;28;20468;-70
2022/03/28 09:50:28;;;;;;;36.17;20.00;;;47.90;1.00;;;;;;4988656;28;20476;-71
2022/03/28 09:52:55;;;;;;;37.23;19.40;;;47.80;1.00;;;;;;4989495;28;20460;-70
2022/03/28 09:55:23;;;;;;;39.33;19.50;;;47.80;1.00;;;;;;4988938;28;20991;-70
2022/03/28 09:57:50;;;;;;;35.97;19.93;;;47.90;1.00;;;;;;4989861;28;20452;-70
2022/03/28 10:00:19;;;;;;;39.00;19.07;;;48.00;1.00;;;;;;4988126;28;20483;-70
2022/03/28 10:02:46;;;;;;;37.80;20.20;;;48.10;1.00;;;;;;4989277;28;20456;-70
2022/03/28 10:05:14;;;;;;;36.20;19.07;;;48.10;1.00;;;;;;4988848;28;20814;-70
2022/03/28 10:07:40;;;;;;;37.67;20.10;;;48.20;1.00;;;;;;4990120;28;20456;-69
2022/03/28 10:10:08;;;;;;;37.10;20.13;;;48.10;1.00;;;;;;4988703;28;20488;-70
2022/03/28 10:12:38;;;;;;;35.83;19.60;;;48.10;1.00;;;;;;4992883;28;20464;-70
2022/03/28 10:15:06;;;;;;;37.43;19.60;;;48.20;1.00;;;;;;4992306;28;20484;-69
2022/03/28 10:17:33;;;;;;;37.67;21.20;;;48.40;1.00;;;;;;4989654;28;20460;-70
2022/03/28 10:20:02;;;;;;;37.10;19.97;;;48.30;1.00;;;;;;4987102;28;20955;-69
2022/03/28 10:22:31;;;;;;;36.67;19.40;;;48.40;1.00;;;;;;4988438;28;20564;-70
2022/03/28 10:25:03;;;;;;;38.97;19.27;;;48.40;1.00;;;;;;4988461;28;20484;-70
2022/03/28 10:27:30;;;;;;;39.13;21.03;;;48.30;1.00;;;;;;4988505;28;20507;-69
2022/03/28 10:30:10;;;;;;;35.63;18.93;;;48.20;1.00;;;;;;4988419;28;20485;-70
2022/03/28 10:32:38;;;;;;;36.00;19.30;;;48.20;1.00;;;;;;4986966;28;20511;-69
2022/03/28 10:35:07;;;;;;;36.37;18.47;;;48.20;1.00;;;;;;4989007;28;20477;-69
2022/03/28 10:37:36;;;;;;;34.73;18.77;;;48.20;1.00;;;;;;4988532;28;20971;-69
2022/03/28 10:40:27;;;;;;;35.10;18.67;;;48.20;1.00;;;;;;4988536;28;20457;-70
2022/03/28 10:43:01;;;;;;;34.90;19.20;;;48.10;1.00;;;;;;4987665;28;20492;-70
2022/03/28 10:45:37;;;;;;;35.93;19.17;;;47.70;1.00;;;;;;4988708;28;20688;-70
2022/03/28 10:48:06;;;;;;;37.03;19.07;;;47.40;1.00;;;;;;4988698;28;20456;-70
2022/03/28 10:50:34;;;;;;;36.47;19.30;;;47.00;1.00;;;;;;4987621;28;20488;-69
2022/03/28 10:53:10;;;;;;;38.17;19.93;;;46.80;1.00;;;;;;4985404;28;20472;-70
2022/03/28 10:55:42;;;;;;;36.60;18.80;;;46.70;1.00;;;;;;4987681;28;20484;-70
2022/03/28 10:58:13;;;;;;;39.27;19.50;;;46.60;1.00;;;;;;4987880;28;20826;-70
2022/03/28 11:01:15;;;;;;;37.00;19.37;;;46.40;1.00;;;;;;4988125;28;20839;-70
2022/03/28 11:03:44;;;;;;;38.73;18.33;;;46.10;1.00;;;;;;4986266;28;20452;-70
2022/03/28 11:06:11;;;;;;;32.90;17.07;;;45.60;1.00;;;;;;4987270;28;20592;-70
2022/03/28 11:08:39;;;;;;;35.90;18.13;;;45.30;1.00;;;;;;4987298;28;20500;-70
2022/03/28 11:11:21;;;;;;;38.30;17.70;;;44.80;1.00;;;;;;4988006;28;20492;-70
2022/03/28 11:14:04;;;;;;;35.33;17.70;;;43.80;1.00;;;;;;4986964;28;20495;-70
2022/03/28 11:16:51;;;;;;;35.97;17.77;;;43.20;1.00;;;;;;4988367;28;20484;-70
2022/03/28 11:19:24;;;;;;;42.07;16.87;;;43.20;1.00;;;;;;4989266;28;20441;-70
2022/03/28 11:22:06;;;;;;;36.03;15.23;;;43.10;1.00;;;;;;4988466;28;20492;-70
2022/03/28 11:24:48;;;;;;;33.37;14.80;;;43.10;1.00;;;;;;4986765;28;20526;-70
2022/03/28 11:27:16;;;;;;;36.57;16.40;;;42.80;1.00;;;;;;4987627;28;20440;-70
2022/03/28 11:29:44;;;;;;;35.30;16.30;;;42.60;1.00;;;;;;4987862;28;20471;-69
2022/03/28 11:32:14;;;;;;;36.50;15.87;;;42.00;1.00;;;;;;4986867;28;20476;-69
2022/03/28 11:34:49;;;;;;;35.10;14.37;;;41.40;1.00;;;;;;4986664;28;20495;-69
2022/03/28 11:37:16;;;;;;;37.20;15.63;;;40.70;1.00;;;;;;4987556;28;20444;-70
2022/03/28 11:39:55;;;;;;;35.83;13.90;;;39.30;1.00;;;;;;4986948;28;20468;-70
2022/03/28 11:42:23;;;;;;;34.50;14.67;;;37.60;1.00;;;;;;4986806;28;20461;-70
2022/03/28 11:44:50;;;;;;;34.70;15.93;;;35.90;1.00;;;;;;4982973;28;20485;-70
2022/03/28 11:47:18;;;;;;;34.27;14.27;;;34.40;1.00;;;;;;4987869;28;20462;-70
2022/03/28 11:49:53;;;;;;;37.53;15.33;;;33.20;1.00;;;;;;4977559;28;20473;-70
2022/03/28 11:52:20;;;;;;;36.17;14.83;;;32.20;1.00;;;;;;4978952;28;21185;-70
2022/03/28 11:54:47;;;;;;;38.40;15.10;;;31.50;1.00;;;;;;4984609;28;20484;-69
2022/03/28 12:00:12;;;;;;;39.57;15.53;;;30.10;1.00;;;;;;4985458;28;20464;-70
2022/03/28 12:02:49;;;;;;;39.87;16.53;;;29.40;1.00;;;;;;4984065;28;21184;-70
2022/03/28 12:05:28;;;;;;;41.77;16.00;;;29.00;1.00;;;;;;4985780;28;20701;-70
2022/03/28 12:07:55;;;;;;;38.30;15.13;;;28.60;1.00;;;;;;4987517;28;20821;-70
2022/03/28 12:10:28;;;;;;;39.27;15.70;;;28.30;1.00;;;;;;4986215;28;20480;-69
2022/03/28 12:12:56;;;;;;;39.10;14.30;;;28.00;1.00;;;;;;4986595;28;20546;-70
2022/03/28 12:15:30;;;;;;;38.80;15.90;;;27.70;1.00;;;;;;4985687;28;20488;-70
2022/03/28 12:18:00;;;;;;;40.70;15.57;;;27.40;1.00;;;;;;4987307;28;20464;-69
2022/03/28 12:20:29;;;;;;;41.43;15.27;;;27.20;1.00;;;;;;4987258;28;20453;-70
2022/03/28 12:22:56;;;;;;;39.37;15.37;;;26.90;1.00;;;;;;4986967;28;20461;-69
2022/03/28 12:25:28;;;;;;;41.93;15.63;;;26.60;1.00;;;;;;4988341;28;21063;-70
2022/03/28 12:27:57;;;;;;;41.30;15.63;;;26.30;1.00;;;;;;4993378;28;20456;-70
2022/03/28 12:30:35;;;;;;;40.70;15.47;;;26.10;1.00;;;;;;4987412;28;20571;-70
2022/03/28 12:33:11;;;;;;;41.63;15.87;;;25.70;1.00;;;;;;4987099;28;20465;-69
2022/03/28 12:35:41;;;;;;;40.90;15.17;;;25.50;1.00;;;;;;4986308;28;21174;-69
2022/03/28 12:38:11;;;;;;;46.23;16.27;;;25.20;1.00;;;;;;4986799;28;20872;-68
2022/03/28 12:40:37;;;;;;;43.77;16.23;;;25.10;1.00;;;;;;4986886;28;20549;-68
2022/03/28 12:43:05;;;;;;;39.47;13.90;;;24.90;1.00;;;;;;4987101;28;20471;-69
2022/03/28 12:45:32;;;;;;;44.23;14.63;;;24.80;1.00;;;;;;4987284;28;20481;-69
2022/03/28 12:48:02;;;;;;;41.30;15.70;;;24.80;1.00;;;;;;4986253;28;20848;-69
2022/03/28 12:50:31;;;;;;;43.30;15.87;;;24.60;1.00;;;;;;4986737;28;20472;-69